KRWL

Rawlins Municipal / Harvey Field Airport

Rawlins, Wyoming, USA
METAR KRWL 190253Z AUTO 24011KT 10SM CLR 21/M03 A3003 RMK AO2 SLP071 T02061028 52010
Observed Flight Rules
Sep-19 @ 02:53 UTC (25 minutes ago) Visual Flight Rules
Wind Visibility Clouds
240° at 11 knots 10 miles
  • Clear skies
Temperatures Readings
Current 21°C / 70°F
Dewpoint -3°C / 27°F
Humidity 20%
Altimeter 30.03" Hg
Pressure 1007.1 hPa
Elevation 2077
METAR KRWL 190253Z AUTO 24011KT 10SM CLR 21/M03 A3003 RMK AO2 SLP071 T02061028 52010
Observed Flight Rules
Sep-19 @ 02:53 UTC
(25 minutes ago)
VFR
Wind Visibility
240° at 11 knots 10 miles
Clouds
  • Clear skies
Temperature Dewpoint
21°C / 70°F -3°C / 27°F
Humidity Altimeter Pressure
20% 30.03" Hg 1007.1 hPa